Latest Coastal Weather Observations for Cape Moreton

IDQ60701

Issued at 8:22 pm EST Thursday 28 July 2016 (issued every 10 minutes, with the page automatically refreshed every 10 minutes)

About coastal observations | Map of coastal stations | Coastal observations for QLD | Marine services | Other Formats
Station Details ID: 040043 Name: CAPE MORETON LIGHTHOUSE Lat: -27.03 Lon: 153.47 Height: 99.9 m
Data from the previous 72 hours. | See also: Recent months at Cape Moreton
Date/Time
EST
Temp
°C
Wind Pressure Rain since
9am
mm
Weather Cloud Vis
km
Sea
Height
m
Swell
Dir  Spd
kts
Gust
kts
hPa Trend Height
m
Period
s
Dir
28/08:00pm 18.3 SE 13 16 1023.0 - 0.0 - - - - - - -
28/07:30pm 18.2 SE 13 17 1023.0 - 0.0 - - - - - - -
28/07:00pm 18.4 SE 14 18 1022.8 - 0.0 - - - - - - -
28/06:30pm 18.2 SE 13 18 1022.4 - 0.0 - - - - - - -
28/06:00pm 18.2 SE 14 17 1022.2 - 0.0 - - - - - - -
28/05:30pm 18.1 SE 13 17 1022.1 - 0.0 - - - - - - -
28/05:00pm 18.4 SE 14 17 1021.8 - 0.0 - - - - - - -
28/04:30pm 18.6 SE 14 17 1021.7 - 0.0 - - - - - - -
28/04:00pm 19.0 SSE 11 17 1021.5 - 0.0 - - - - - - -
28/03:30pm 18.8 S 9 13 1021.6 - 0.0 - - - - - - -
28/03:00pm 18.7 S 10 13 1021.6 - 0.0 - - - - - - -
28/02:30pm 19.0 SSE 10 13 1021.7 - 0.0 - - - - - - -
28/02:00pm 19.2 S 10 14 1021.8 - 0.0 - - - - - - -
28/01:30pm 19.2 SSE 9 13 1021.9 - 0.0 - - - - - - -
28/01:00pm 19.1 SSE 10 14 1022.2 - 0.0 - - - - - - -
28/12:30pm 19.1 S 10 14 1022.4 - 0.0 - - - - - - -
28/12:00pm 19.5 S 9 14 1022.8 - 0.0 - - - - - - -
28/11:30am 19.7 SSE 8 12 1023.1 - 0.0 - - - - - - -
28/11:00am 18.9 S 8 13 1023.5 - 0.0 - - - - - - -
28/10:30am 18.6 SW 8 13 1023.6 - 0.0 - - - - - - -
28/10:00am 18.1 SSW 8 13 1023.6 - 0.0 - - - - - - -
28/09:30am 17.2 SW 9 13 1023.7 - 0.0 - - - - - - -
28/09:00am 16.1 SW 12 16 1023.4 - 0.0 - - - - - - -
28/08:30am 15.5 SW 10 13 1023.3 - 0.0 - - - - - - -
28/08:00am 14.6 SW 11 17 1022.9 - 0.0 - - - - - - -
28/07:30am 13.5 SW 13 17 1022.4 - 0.0 - - - - - - -
28/07:00am 12.6 SW 12 15 1022.1 - 0.0 - - - - - - -
28/06:30am 12.5 SSW 12 13 1021.8 - 0.0 - - - - - - -
28/06:00am 12.6 SSW 11 14 1021.6 - 0.0 - - - - - - -
28/05:30am 12.7 SSW 11 13 1021.3 - 0.0 - - - - - - -
28/05:00am 13.2 SW 12 16 1020.8 - 0.0 - - - - - - -
28/04:30am 13.8 SW 13 17 1020.6 - 0.0 - - - - - - -
28/04:00am 13.8 SW 13 18 1020.6 - 0.0 - - - - - - -
28/03:30am 14.0 SW 14 18 1020.6 - 0.0 - - - - - - -
28/03:00am 14.1 SW 13 18 1020.8 - 0.0 - - - - - - -
28/02:30am 14.3 SW 12 18 1020.8 - 0.0 - - - - - - -
28/02:00am 14.3 SW 13 16 1020.9 - 0.0 - - - - - - -
28/01:30am 14.5 SW 12 17 1021.0 - 0.0 - - - - - - -
28/01:00am 14.5 SW 12 16 1021.0 - 0.0 - - - - - - -
28/12:30am 14.2 SW 12 16 1020.8 - 0.0 - - - - - - -
28/12:00am 14.3 SW 11 15 1020.9 - 0.0 - - - - - - -
 
Date/Time
EST
Temp
°C
Wind Pressure Rain since
9am
mm
Weather Cloud Vis
km
Sea
Height
m
Swell
Dir  Spd
kts
Gust
kts
hPa Trend Height
m
Period
s
Dir
27/11:30pm 14.4 SW 11 15 1020.9 - 0.0 - - - - - - -
27/11:00pm 14.9 SW 12 16 1020.7 - 0.0 - - - - - - -
27/10:30pm 15.1 SW 12 16 1020.7 - 0.0 - - - - - - -
27/10:00pm 15.7 SW 12 17 1020.7 - 0.0 - - - - - - -
27/09:30pm 16.0 WSW 12 15 1020.5 - 0.0 - - - - - - -
27/09:00pm 16.1 WSW 11 12 1020.2 - 0.0 - - - - - - -
27/08:30pm 16.1 WSW 10 11 1019.8 - 0.0 - - - - - - -
27/08:00pm 15.9 WSW 9 12 1019.6 - 0.0 - - - - - - -
27/07:30pm 16.0 W 9 11 1019.2 - 0.0 - - - - - - -
27/07:00pm 16.0 W 10 11 1018.8 - 0.0 - - - - - - -
27/06:30pm 15.9 W 9 10 1018.4 - 0.0 - - - - - - -
27/06:00pm 15.6 WSW 9 10 1018.0 - 0.0 - - - - - - -
27/05:30pm 15.7 W 9 11 1017.7 - 0.0 - - - - - - -
27/05:00pm 15.9 W 8 11 1017.3 - 0.0 - - - - - - -
27/04:30pm 16.6 W 9 12 1017.1 - 0.0 - - - - - - -
27/04:00pm 17.2 WSW 5 8 1016.8 - 0.0 - - - - - - -
27/03:30pm 16.8 WSW 6 8 1017.0 - 0.0 - - - - - - -
27/03:00pm 16.6 WSW 8 11 1016.9 - 0.0 - - - - - - -
27/02:30pm 17.0 WSW 10 17 1017.1 - 0.0 - - - - - - -
27/02:00pm 17.0 WSW 15 20 1016.8 - 0.0 - - - - - - -
27/01:30pm 17.5 WSW 12 19 1017.0 - 0.0 - - - - - - -
27/01:00pm 17.1 WSW 14 20 1017.1 - 0.0 - - - - - - -
27/12:30pm 17.5 WSW 13 20 1017.2 - 0.0 - - - - - - -
27/12:00pm 16.5 WSW 15 19 1017.6 - 0.0 - - - - - - -
27/11:30am 16.4 WSW 13 19 1018.2 - 0.0 - - - - - - -
27/11:00am 16.8 WSW 12 17 1018.5 - 0.0 - - - - - - -
27/10:30am 17.1 WSW 12 17 1018.9 - 0.0 - - - - - - -
27/10:00am 16.7 WSW 12 18 1018.9 - 0.0 - - - - - - -
27/09:30am 16.3 WSW 11 15 1018.8 - 0.0 - - - - - - -
27/09:00am 16.8 WSW 11 17 1018.5 - 0.0 - - - - - - -
27/08:30am 17.0 WSW 9 13 1018.5 - 0.0 - - - - - - -
27/08:00am 16.5 WSW 9 13 1018.5 - 0.0 - - - - - - -
27/07:30am 16.1 W 10 13 1018.5 - 0.0 - - - - - - -
27/07:00am 15.8 W 9 13 1018.4 - 0.0 - - - - - - -
27/06:30am 15.9 WSW 11 14 1018.5 - 0.0 - - - - - - -
27/06:00am 15.9 WSW 9 14 1018.0 - 0.0 - - - - - - -
27/05:30am 16.4 W 13 18 1017.8 - 0.0 - - - - - - -
27/05:00am 16.0 W 8 11 1017.4 - 0.0 - - - - - - -
27/04:30am 16.3 WSW 11 15 1017.5 - 0.0 - - - - - - -
27/04:00am 16.5 W 11 16 1017.2 - 0.0 - - - - - - -
27/03:30am 16.9 W 12 17 1017.1 - 0.0 - - - - - - -
27/03:00am 17.1 WNW 11 15 1016.8 - 0.0 - - - - - - -
27/02:30am 17.2 W 16 22 1017.4 - 0.0 - - - - - - -
27/02:00am 17.3 W 12 16 1017.3 - 0.0 - - - - - - -
27/01:30am 17.6 WNW 12 17 1017.3 - 0.0 - - - - - - -
27/01:00am 17.6 WNW 12 18 1017.5 - 0.0 - - - - - - -
27/12:30am 17.8 WNW 11 16 1017.6 - 0.0 - - - - - - -
27/12:00am 17.9 WNW 10 13 1017.4 - 0.0 - - - - - - -
 
Date/Time
EST
Temp
°C
Wind Pressure Rain since
9am
mm
Weather Cloud Vis
km
Sea
Height
m
Swell
Dir  Spd
kts
Gust
kts
hPa Trend Height
m
Period
s
Dir
26/11:30pm 17.8 WNW 8 12 1017.6 - 0.0 - - - - - - -
26/11:00pm 17.6 W 10 15 1017.5 - 0.0 - - - - - - -
26/10:30pm 17.7 W 11 14 1017.8 - 0.0 - - - - - - -
26/10:00pm 17.7 WNW 9 13 1018.0 - 0.0 - - - - - - -
26/09:30pm 17.5 WNW 7 10 1017.6 - 0.0 - - - - - - -
26/09:00pm 17.6 WNW 11 16 1018.0 - 0.0 - - - - - - -
26/08:30pm 17.4 NW 9 13 1017.6 - 0.0 - - - - - - -
26/08:00pm 17.3 NW 10 15 1017.8 - 0.0 - - - - - - -
26/07:30pm 17.3 NW 9 12 1017.7 - 0.0 - - - - - - -
26/07:00pm 17.2 NW 8 11 1017.0 - 0.0 - - - - - - -
26/06:30pm 17.1 WNW 7 11 1017.0 - 0.0 - - - - - - -
26/06:00pm 17.1 WNW 9 11 1016.4 - 0.0 - - - - - - -
26/05:30pm 16.4 WNW 7 9 1016.8 - 0.0 - - - - - - -
26/05:00pm 16.0 NNW 4 7 1016.4 - 0.0 - - - - - - -
26/04:30pm 15.8 W 4 5 1016.4 - 0.0 - - - - - - -
26/04:00pm 16.0 W 1 4 1016.3 - 0.0 - - - - - - -
26/03:30pm 16.4 W 6 8 1016.7 - 0.0 - - - - - - -
26/03:00pm 16.8 W 5 6 1016.2 - 0.0 - - - - - - -
26/02:30pm 16.9 WSW 5 7 1016.4 - 0.0 - - - - - - -
26/02:00pm 17.3 WSW 5 8 1017.0 - 0.0 - - - - - - -
26/01:30pm 17.0 W 7 9 1017.3 - 0.0 - - - - - - -
26/01:00pm 17.2 W 7 9 1017.4 - 0.0 - - - - - - -
26/12:30pm 17.6 W 6 9 1017.9 - 0.0 - - - - - - -
26/12:00pm 16.9 WSW 7 11 1018.4 - 0.0 - - - - - - -
26/11:30am 16.4 W 8 11 1019.0 - 0.0 - - - - - - -
26/11:00am 16.6 WSW 7 10 1019.2 - 0.0 - - - - - - -
26/10:30am 15.8 WSW 8 12 1019.3 - 0.0 - - - - - - -
26/10:00am 15.5 WSW 9 13 1019.1 - 0.0 - - - - - - -
26/09:30am 15.1 WSW 8 12 1019.4 - 0.0 - - - - - - -
26/09:00am 14.8 WSW 7 11 1019.4 - 0.0 - - - - - - -
26/08:30am 14.6 WSW 9 12 1019.3 - 0.0 - - - - - - -
26/08:00am 14.7 W 11 13 1019.2 - 0.0 - - - - - - -
26/07:30am 14.6 WSW 8 11 1018.9 - 0.0 - - - - - - -
26/07:00am 13.7 WSW 11 14 1018.7 - 0.0 - - - - - - -
26/06:30am 13.6 WSW 11 13 1018.5 - 0.0 - - - - - - -
26/06:00am 13.4 WSW 11 15 1018.3 - 0.0 - - - - - - -
26/05:30am 14.0 WSW 11 15 1018.1 - 0.0 - - - - - - -
26/05:00am 13.9 WSW 13 17 1017.8 - 0.0 - - - - - - -
26/04:30am 14.1 WSW 10 13 1017.4 - 0.0 - - - - - - -
26/04:00am 14.5 WSW 12 18 1017.3 - 0.0 - - - - - - -
26/03:30am 14.7 WSW 11 13 1017.4 - 0.0 - - - - - - -
26/03:00am 15.2 WSW 11 14 1017.7 - 0.0 - - - - - - -
26/02:30am 15.3 WSW 10 12 1017.7 - 0.0 - - - - - - -
26/02:00am 15.0 WSW 10 12 1017.7 - 0.0 - - - - - - -
26/01:30am 15.4 WSW 11 13 1018.0 - 0.0 - - - - - - -
26/01:00am 15.8 WSW 10 12 1018.5 - 0.0 - - - - - - -
26/12:30am 15.9 SW 9 13 1018.6 - 0.0 - - - - - - -
26/12:00am 16.2 WSW 10 12 1018.3 - 0.0 - - - - - - -
 
Date/Time
EST
Temp
°C
Wind Pressure Rain since
9am
mm
Weather Cloud Vis
km
Sea
Height
m
Swell
Dir  Spd
kts
Gust
kts
hPa Trend Height
m
Period
s
Dir
25/11:30pm 16.2 SW 8 10 1018.0 - 0.0 - - - - - - -
25/11:00pm 16.3 WSW 9 11 1017.8 - 0.0 - - - - - - -
25/10:30pm 16.5 WSW 9 11 1018.2 - 0.0 - - - - - - -
25/10:00pm 16.8 WSW 9 11 1018.2 - 0.0 - - - - - - -
25/09:30pm 16.9 W 8 10 1018.1 - 0.0 - - - - - - -
25/09:00pm 17.0 WNW 7 11 1018.0 - 0.0 - - - - - - -
25/08:30pm 17.3 NW 7 8 1017.8 - 0.0 - - - - - - -

Other Formats:

Comma delimited format used in spreadsheet applications
http://www.bom.gov.au/fwo/IDQ60701/IDQ60701.94594.axf

JavaScript Object Notation format (JSON) in row-major order
http://www.bom.gov.au/fwo/IDQ60701/IDQ60701.94594.json